Weather at Meerbeek heliport

Public forecast

Using degrees Celsius for public forecast. Weather courtesy of forecast.io.

Closest aviation weather report (METAR) to Meerbeek heliport

Closest report is Brussels Airport, 4.6 nm (8.5 km) WNW. Retrieved 2021/08/05 11:20 UTC (27 minutes ago):

EBBR 051120Z VRB01KT 9999 SCT029 20/14 Q1009 NOSIG

Closest aviation forecast (TAF) to Meerbeek heliport

Closest forecast is Brussels Airport, 4.6 nm (8.5 km) WNW. Retrieved 2021/08/05 06:27 UTC (5 hours ago):

TAF TAF EBBR 050500Z 0506/0612 VRB03KT 9999 SCT030 PROB30 TEMPO 0506/0507 4500 BR BECMG 0514/0516 22010KT BECMG 0519/0521 16007KT PROB40 TEMPO 0522/0601 4500 RA SHRA TEMPO 0603/0612 SHRA BKN014TCU BECMG 0608/0610 22014KT PROB30 TEMPO 0609/0612 23015G25KT 4000 SHRA BKN014CB